createdAt,value
2018-07-13T00:02:51.750Z,6.37
2018-07-13T00:07:54.921Z,4.80
2018-07-13T00:12:57.978Z,8.97
2018-07-13T00:18:00.986Z,6.13
2018-07-13T00:23:04.024Z,9.53
2018-07-13T00:28:07.085Z,5.93
2018-07-13T00:33:10.160Z,5.30
2018-07-13T00:38:13.231Z,6.70
2018-07-13T00:43:16.305Z,6.13
2018-07-13T00:48:19.325Z,5.73
2018-07-13T00:53:22.352Z,9.47
2018-07-13T00:58:25.358Z,5.03
2018-07-13T01:03:28.418Z,6.57
2018-07-13T01:08:31.642Z,11.23
2018-07-13T01:13:34.726Z,5.63
2018-07-13T01:18:37.834Z,5.90
2018-07-13T01:23:40.857Z,7.43
2018-07-13T01:28:43.861Z,8.57
2018-07-13T01:33:46.888Z,6.07
2018-07-13T01:38:49.905Z,6.03
2018-07-13T01:43:52.982Z,8.33
2018-07-13T01:48:56.017Z,6.77
2018-07-13T01:53:59.065Z,6.27
2018-07-13T01:59:02.135Z,5.83
2018-07-13T02:04:05.189Z,4.80
2018-07-13T02:09:09.112Z,6.37
2018-07-13T02:14:12.136Z,6.27
2018-07-13T02:19:15.188Z,5.87
2018-07-13T02:24:18.238Z,7.17
2018-07-13T02:29:21.250Z,7.40
2018-07-13T02:34:24.311Z,6.63
2018-07-13T02:39:27.373Z,6.70
2018-07-13T02:44:30.609Z,7.27
2018-07-13T02:49:33.645Z,7.63
2018-07-13T02:54:36.736Z,10.83
2018-07-13T02:59:39.842Z,7.87
2018-07-13T03:04:42.904Z,8.87
2018-07-13T03:09:45.971Z,14.23
2018-07-13T03:14:48.994Z,6.90
2018-07-13T03:19:52.006Z,6.23
2018-07-13T03:24:55.150Z,6.70
2018-07-13T03:29:58.255Z,6.60
2018-07-13T03:35:01.363Z,8.20
2018-07-13T03:40:04.569Z,6.07
2018-07-13T03:45:07.642Z,12.80
2018-07-13T03:50:10.705Z,10.17
2018-07-13T03:55:13.718Z,11.20
2018-07-13T04:00:16.766Z,6.87
2018-07-13T04:05:19.776Z,6.63
2018-07-13T04:10:22.798Z,8.30
2018-07-13T04:15:25.834Z,8.80
2018-07-13T04:20:28.862Z,6.20
2018-07-13T04:25:31.871Z,7.20
2018-07-13T04:30:34.898Z,13.70
2018-07-13T04:35:37.921Z,7.37
2018-07-13T04:40:40.980Z,9.17
2018-07-13T04:45:44.020Z,10.97
2018-07-13T04:50:47.106Z,9.43
2018-07-13T04:55:50.129Z,6.63
2018-07-13T05:00:53.186Z,8.53
2018-07-13T05:05:56.203Z,10.30
2018-07-13T05:10:59.238Z,11.33
2018-07-13T05:16:02.282Z,11.27
2018-07-13T05:21:05.366Z,10.40
2018-07-13T05:26:08.640Z,10.20
2018-07-13T05:31:11.661Z,11.57
2018-07-13T05:36:14.691Z,10.30
2018-07-13T05:41:17.657Z,7.90
2018-07-13T05:46:20.706Z,13.90
2018-07-13T05:51:23.751Z,13.33
2018-07-13T05:56:26.924Z,11.03
2018-07-13T06:01:29.977Z,15.00
2018-07-13T06:06:33.047Z,12.33
2018-07-13T06:11:36.110Z,13.50
2018-07-13T06:16:39.172Z,17.30
2018-07-13T06:21:42.200Z,16.80
2018-07-13T06:26:45.211Z,13.90
2018-07-13T06:31:48.262Z,16.20
2018-07-13T06:36:51.308Z,13.97
2018-07-13T06:41:54.434Z,18.40
2018-07-13T06:46:57.484Z,16.57
2018-07-13T06:52:00.519Z,13.87
2018-07-13T06:57:03.545Z,13.73
2018-07-13T07:02:06.758Z,19.03
2018-07-13T07:07:10.570Z,19.33
2018-07-13T07:12:53.376Z,20.13
2018-07-13T07:17:56.483Z,22.23
2018-07-13T07:22:59.541Z,22.70
2018-07-13T07:28:02.562Z,18.37
2018-07-13T07:33:06.523Z,18.00
2018-07-13T07:38:09.819Z,19.03
2018-07-13T07:43:13.189Z,15.10
2018-07-13T07:48:16.709Z,14.50
2018-07-13T07:53:19.978Z,19.60
2018-07-13T07:58:23.013Z,18.77
2018-07-13T08:03:26.068Z,27.77
2018-07-13T08:08:29.172Z,20.07
2018-07-13T08:13:32.369Z,23.63
2018-07-13T08:18:35.505Z,27.43
2018-07-13T08:23:38.584Z,26.90
2018-07-13T08:28:42.298Z,23.60
2018-07-13T08:33:45.444Z,31.60
2018-07-13T08:38:48.492Z,25.63
2018-07-13T08:43:51.515Z,23.47
2018-07-13T08:48:54.528Z,23.13
2018-07-13T08:53:57.597Z,26.47
2018-07-13T08:59:00.625Z,24.67
2018-07-13T09:04:03.649Z,22.97
2018-07-13T09:09:11.556Z,19.40
2018-07-13T09:14:14.751Z,22.57
2018-07-13T09:19:17.758Z,21.87
2018-07-13T09:24:20.823Z,21.90
2018-07-13T09:29:23.832Z,24.70
2018-07-13T09:34:26.856Z,27.73
2018-07-13T09:39:29.907Z,25.60
2018-07-13T09:44:32.913Z,24.60
2018-07-13T09:49:35.944Z,25.13
2018-07-13T09:54:38.957Z,21.30
2018-07-13T09:59:41.945Z,28.57
2018-07-13T10:04:45.040Z,23.03
2018-07-13T10:09:48.182Z,22.90
2018-07-13T10:14:51.214Z,20.00
2018-07-13T10:19:54.254Z,17.77
2018-07-13T10:25:00.027Z,22.30
2018-07-13T10:30:03.976Z,14.73
2018-07-13T10:35:07.702Z,15.13
2018-07-13T10:40:10.741Z,17.20
2018-07-13T10:45:13.750Z,17.73
2018-07-13T10:50:16.786Z,18.23
2018-07-13T10:55:19.814Z,17.77
2018-07-13T11:00:22.834Z,18.60
2018-07-13T11:05:25.838Z,16.80
2018-07-13T11:10:28.950Z,21.23
2018-07-13T11:15:31.976Z,16.77
2018-07-13T11:20:35.018Z,20.40
2018-07-13T11:25:38.051Z,17.83
2018-07-13T11:30:41.066Z,14.30
2018-07-13T11:35:44.084Z,15.80
2018-07-13T11:40:47.128Z,17.23
2018-07-13T11:45:50.190Z,15.37
2018-07-13T11:50:53.196Z,20.50
2018-07-13T11:55:56.204Z,18.03
2018-07-13T12:00:59.260Z,13.57
2018-07-13T12:06:02.291Z,17.43
2018-07-13T12:11:05.356Z,16.57
2018-07-13T12:16:08.411Z,12.20
2018-07-13T12:21:11.512Z,8.10
2018-07-13T12:26:14.568Z,7.73
2018-07-13T12:31:17.559Z,8.83
2018-07-13T12:36:20.563Z,10.77
2018-07-13T12:41:23.575Z,8.87
2018-07-13T12:46:26.596Z,7.43
2018-07-13T12:51:29.627Z,8.03
2018-07-13T12:56:32.608Z,8.43
2018-07-13T13:01:35.613Z,9.57
2018-07-13T13:06:38.639Z,5.10
2018-07-13T13:11:41.666Z,7.17
2018-07-13T13:16:44.742Z,9.73
2018-07-13T13:21:47.794Z,5.60
2018-07-13T13:26:50.869Z,6.13
2018-07-13T13:31:53.938Z,5.73
2018-07-13T13:36:56.992Z,4.77
2018-07-13T13:41:59.995Z,7.00
2018-07-13T13:47:03.010Z,8.60
2018-07-13T13:52:06.160Z,4.13
2018-07-13T13:57:09.177Z,7.83
2018-07-13T14:02:12.207Z,5.23
2018-07-13T14:07:15.209Z,5.30
2018-07-13T14:12:18.678Z,4.03
2018-07-13T14:17:22.113Z,4.63
2018-07-13T14:22:25.463Z,5.90
2018-07-13T14:27:28.458Z,5.30
2018-07-13T14:32:31.458Z,10.17
2018-07-13T14:37:34.689Z,6.00
2018-07-13T14:42:37.783Z,11.23
2018-07-13T14:47:41.393Z,4.80
2018-07-13T14:52:44.416Z,6.57
2018-07-13T14:57:47.424Z,17.17
2018-07-13T15:02:50.482Z,5.10
2018-07-13T15:07:53.727Z,6.17
2018-07-13T15:12:56.750Z,3.90
2018-07-13T15:17:59.753Z,8.50
2018-07-13T15:23:02.796Z,6.60
2018-07-13T15:28:05.797Z,4.73
2018-07-13T15:33:09.550Z,15.77
2018-07-13T15:38:12.660Z,4.00
2018-07-13T15:43:15.761Z,4.60
2018-07-13T15:48:18.815Z,8.20
2018-07-13T15:53:21.919Z,7.10
2018-07-13T15:58:25.595Z,4.20
2018-07-13T16:03:28.626Z,4.70
2018-07-13T16:08:31.614Z,4.33
2018-07-13T16:13:34.641Z,6.33
2018-07-13T16:18:37.682Z,5.10
2018-07-13T16:23:41.228Z,11.57
2018-07-13T16:28:44.303Z,4.50
2018-07-13T16:33:47.275Z,5.50
2018-07-13T16:38:50.296Z,2.93
2018-07-13T16:43:53.378Z,2.70
2018-07-13T16:48:56.382Z,3.23
2018-07-13T16:53:59.753Z,3.87
2018-07-13T16:59:02.786Z,5.57
2018-07-13T17:04:05.835Z,5.70
2018-07-13T17:09:09.234Z,7.30
2018-07-13T17:14:12.745Z,9.63
2018-07-13T17:19:16.264Z,9.23
2018-07-13T17:24:19.665Z,6.53
2018-07-13T17:29:22.927Z,6.80
2018-07-13T17:34:26.106Z,5.20
2018-07-13T17:39:29.127Z,4.23
2018-07-13T17:44:32.230Z,4.27
2018-07-13T17:49:35.838Z,3.93
2018-07-13T17:54:38.865Z,3.23
2018-07-13T17:59:41.945Z,3.47
2018-07-13T18:04:44.966Z,4.50
2018-07-13T18:09:47.966Z,4.13
2018-07-13T18:14:51.057Z,4.33
2018-07-13T18:19:54.067Z,3.53
2018-07-13T18:24:57.141Z,3.33
2018-07-13T18:30:00.197Z,3.30
2018-07-13T18:35:03.285Z,3.47
2018-07-13T18:40:06.374Z,4.13
2018-07-13T18:45:09.610Z,6.80
2018-07-13T18:50:12.651Z,5.20
2018-07-13T18:55:15.674Z,5.77
2018-07-13T19:00:18.752Z,5.63
2018-07-13T19:05:22.124Z,6.13
2018-07-13T19:10:25.129Z,5.80
2018-07-13T19:15:28.138Z,12.70
2018-07-13T19:20:31.271Z,4.50
2018-07-13T19:25:34.321Z,3.80
2018-07-13T19:30:37.482Z,4.73
2018-07-13T19:35:40.401Z,4.37
2018-07-13T19:40:43.443Z,4.63
2018-07-13T19:45:46.453Z,4.77
2018-07-13T19:50:49.542Z,6.07
2018-07-13T19:55:52.563Z,7.17
2018-07-13T20:00:55.586Z,4.37
2018-07-13T20:05:58.592Z,7.20
2018-07-13T20:11:01.549Z,5.57
2018-07-13T20:16:04.554Z,5.43
2018-07-13T20:21:07.562Z,6.37
2018-07-13T20:26:10.577Z,5.17
2018-07-13T20:31:13.582Z,5.80
2018-07-13T20:36:16.611Z,5.10
2018-07-13T20:41:19.664Z,6.03
2018-07-13T20:46:22.670Z,5.70
2018-07-13T20:51:25.677Z,6.00
2018-07-13T20:56:28.706Z,5.87
2018-07-13T21:01:31.739Z,5.50
2018-07-13T21:06:34.806Z,5.73
2018-07-13T21:11:37.928Z,7.30
2018-07-13T21:16:40.956Z,7.60
2018-07-13T21:21:43.990Z,7.20
2018-07-13T21:26:47.116Z,7.97
2018-07-13T21:31:49.886Z,6.90
2018-07-13T21:36:52.938Z,6.77
2018-07-13T21:41:55.786Z,16.23
2018-07-13T21:46:58.806Z,9.57
2018-07-13T21:52:02.621Z,8.67
2018-07-13T21:57:05.626Z,11.67
2018-07-13T22:02:08.651Z,14.63
2018-07-13T22:07:11.643Z,7.80
2018-07-13T22:12:14.651Z,7.80
2018-07-13T22:17:17.654Z,6.00
2018-07-13T22:22:20.689Z,6.10
2018-07-13T22:27:23.696Z,6.63
2018-07-13T22:32:26.745Z,5.17
2018-07-13T22:37:29.767Z,5.67
2018-07-13T22:42:32.755Z,5.20
2018-07-13T22:47:35.764Z,12.23
2018-07-13T22:52:38.795Z,5.60
2018-07-13T22:57:41.909Z,6.40
2018-07-13T23:02:44.908Z,6.70
2018-07-13T23:07:47.944Z,6.47
2018-07-13T23:12:51.074Z,7.20
2018-07-13T23:17:54.092Z,9.00
2018-07-13T23:22:57.098Z,5.77
2018-07-13T23:28:00.118Z,6.87
2018-07-13T23:33:03.114Z,5.63
2018-07-13T23:38:06.118Z,6.57
2018-07-13T23:43:09.111Z,8.27
2018-07-13T23:48:12.113Z,5.87
2018-07-13T23:53:15.140Z,6.50
2018-07-13T23:58:18.155Z,5.30
